Terminal Aerodrome Forecast
Issued by NWS

Current Version | Previous Version | Text Only | Print | Product List | Glossary On
Versions: 1 2 3 4 5 6 7 8 9 10 11 12 13 14 15 16 17 18
000
FTUS44 KLZK 271120
TAFLLQ
TAF
KLLQ 271120Z 2712/2812 16008KT P6SM VCSH BKN010 OVC015
     FM271800 17012G22KT P6SM -SHRA VCTS SCT012 OVC025CB
     FM272100 16012KT 5SM -SHRA BR OVC020
      TEMPO 2721/2801 2SM -TSRA OVC010CB
     FM280100 17012KT 6SM -SHRA BR VCTS BKN020CB PROB30 2801/2806
      3SM -TSRA BR BKN015CB=

USA.gov is the U.S. government's official web portal to all federal, state and local government web resources and services.